sensor_id;sensor_type;location;lat;lon;timestamp;temperature;humidity
29663;DHT22;16578;53.266;7.920;2022-09-30T00:01:36;14.40;77.10
29663;DHT22;16578;53.266;7.920;2022-09-30T00:04:02;14.40;77.10
29663;DHT22;16578;53.266;7.920;2022-09-30T00:06:29;14.40;77.20
29663;DHT22;16578;53.266;7.920;2022-09-30T00:08:55;14.40;77.30
29663;DHT22;16578;53.266;7.920;2022-09-30T00:11:24;14.40;77.40
29663;DHT22;16578;53.266;7.920;2022-09-30T00:13:52;14.40;77.40
29663;DHT22;16578;53.266;7.920;2022-09-30T00:16:19;14.40;77.30
29663;DHT22;16578;53.266;7.920;2022-09-30T00:18:46;14.40;77.20
29663;DHT22;16578;53.266;7.920;2022-09-30T00:21:13;14.40;77.30
29663;DHT22;16578;53.266;7.920;2022-09-30T00:23:41;14.40;77.20
29663;DHT22;16578;53.266;7.920;2022-09-30T00:26:10;14.40;77.20
29663;DHT22;16578;53.266;7.920;2022-09-30T00:28:37;14.40;77.10
29663;DHT22;16578;53.266;7.920;2022-09-30T00:31:06;14.40;77.20
29663;DHT22;16578;53.266;7.920;2022-09-30T00:33:33;14.40;77.10
29663;DHT22;16578;53.266;7.920;2022-09-30T00:35:59;14.40;77.10
29663;DHT22;16578;53.266;7.920;2022-09-30T00:38:25;14.40;77.10
29663;DHT22;16578;53.266;7.920;2022-09-30T00:40:51;14.40;77.10
29663;DHT22;16578;53.266;7.920;2022-09-30T00:43:20;14.40;77.10
29663;DHT22;16578;53.266;7.920;2022-09-30T00:46:02;14.40;76.90
29663;DHT22;16578;53.266;7.920;2022-09-30T00:48:34;14.30;76.90
29663;DHT22;16578;53.266;7.920;2022-09-30T00:51:03;14.30;76.70
29663;DHT22;16578;53.266;7.920;2022-09-30T00:53:50;14.30;76.70
29663;DHT22;16578;53.266;7.920;2022-09-30T00:56:20;14.30;76.70
29663;DHT22;16578;53.266;7.920;2022-09-30T00:59:12;14.20;76.60
29663;DHT22;16578;53.266;7.920;2022-09-30T01:01:40;14.30;76.70
29663;DHT22;16578;53.266;7.920;2022-09-30T01:04:14;14.20;76.70
29663;DHT22;16578;53.266;7.920;2022-09-30T01:06:41;14.20;76.80
29663;DHT22;16578;53.266;7.920;2022-09-30T01:09:09;14.20;76.90
29663;DHT22;16578;53.266;7.920;2022-09-30T01:11:35;14.20;77.00
29663;DHT22;16578;53.266;7.920;2022-09-30T01:14:05;14.20;77.00
29663;DHT22;16578;53.266;7.920;2022-09-30T01:19:57;14.20;76.90
29663;DHT22;16578;53.266;7.920;2022-09-30T01:23:14;14.10;76.90
29663;DHT22;16578;53.266;7.920;2022-09-30T01:33:46;14.10;76.90
29663;DHT22;16578;53.266;7.920;2022-09-30T01:36:42;14.00;76.80
29663;DHT22;16578;53.266;7.920;2022-09-30T01:42:07;14.00;76.70
29663;DHT22;16578;53.266;7.920;2022-09-30T01:44:45;13.90;76.80
29663;DHT22;16578;53.266;7.920;2022-09-30T01:47:24;13.90;76.90
29663;DHT22;16578;53.266;7.920;2022-09-30T01:52:32;13.90;77.00
29663;DHT22;16578;53.266;7.920;2022-09-30T01:55:11;13.80;77.00
29663;DHT22;16578;53.266;7.920;2022-09-30T01:57:57;13.80;77.10
29663;DHT22;16578;53.266;7.920;2022-09-30T02:00:25;13.80;77.10
29663;DHT22;16578;53.266;7.920;2022-09-30T02:03:01;13.80;77.10
29663;DHT22;16578;53.266;7.920;2022-09-30T02:05:43;13.80;77.10
29663;DHT22;16578;53.266;7.920;2022-09-30T02:08:25;13.80;77.10
29663;DHT22;16578;53.266;7.920;2022-09-30T02:10:56;13.80;77.10
29663;DHT22;16578;53.266;7.920;2022-09-30T02:13:39;13.80;77.10
29663;DHT22;16578;53.266;7.920;2022-09-30T02:16:09;13.80;76.90
29663;DHT22;16578;53.266;7.920;2022-09-30T02:18:47;13.80;76.90
29663;DHT22;16578;53.266;7.920;2022-09-30T02:21:19;13.80;76.90
29663;DHT22;16578;53.266;7.920;2022-09-30T02:23:46;13.80;77.00
29663;DHT22;16578;53.266;7.920;2022-09-30T02:26:24;13.80;77.10
29663;DHT22;16578;53.266;7.920;2022-09-30T02:29:02;13.80;77.00
29663;DHT22;16578;53.266;7.920;2022-09-30T02:31:33;13.80;77.00
29663;DHT22;16578;53.266;7.920;2022-09-30T02:34:06;13.70;77.00
29663;DHT22;16578;53.266;7.920;2022-09-30T02:36:38;13.80;77.00
29663;DHT22;16578;53.266;7.920;2022-09-30T02:39:13;13.80;77.10
29663;DHT22;16578;53.266;7.920;2022-09-30T02:41:50;13.80;77.10
29663;DHT22;16578;53.266;7.920;2022-09-30T02:44:17;13.80;77.10
29663;DHT22;16578;53.266;7.920;2022-09-30T02:49:16;13.70;77.00
29663;DHT22;16578;53.266;7.920;2022-09-30T02:57:19;13.80;77.20
29663;DHT22;16578;53.266;7.920;2022-09-30T02:59:50;13.80;77.30
29663;DHT22;16578;53.266;7.920;2022-09-30T03:02:17;13.70;77.20
29663;DHT22;16578;53.266;7.920;2022-09-30T03:04:45;13.70;77.40
29663;DHT22;16578;53.266;7.920;2022-09-30T03:07:11;13.70;77.20
29663;DHT22;16578;53.266;7.920;2022-09-30T03:09:37;13.70;77.20
29663;DHT22;16578;53.266;7.920;2022-09-30T03:12:15;13.70;77.20
29663;DHT22;16578;53.266;7.920;2022-09-30T03:14:53;13.70;77.20
29663;DHT22;16578;53.266;7.920;2022-09-30T03:20:11;13.70;77.30
29663;DHT22;16578;53.266;7.920;2022-09-30T03:25:10;13.70;77.30
29663;DHT22;16578;53.266;7.920;2022-09-30T03:30:22;13.70;77.30
29663;DHT22;16578;53.266;7.920;2022-09-30T03:33:12;13.70;77.40
29663;DHT22;16578;53.266;7.920;2022-09-30T03:35:59;13.70;77.40
29663;DHT22;16578;53.266;7.920;2022-09-30T03:38:38;13.70;77.40
29663;DHT22;16578;53.266;7.920;2022-09-30T03:46:20;13.70;77.30
29663;DHT22;16578;53.266;7.920;2022-09-30T03:48:50;13.70;77.40
29663;DHT22;16578;53.266;7.920;2022-09-30T03:51:17;13.70;77.40
29663;DHT22;16578;53.266;7.920;2022-09-30T03:53:43;13.70;77.40
29663;DHT22;16578;53.266;7.920;2022-09-30T03:56:11;13.70;77.40
29663;DHT22;16578;53.266;7.920;2022-09-30T03:58:42;13.70;77.40
29663;DHT22;16578;53.266;7.920;2022-09-30T04:01:16;13.70;77.40
29663;DHT22;16578;53.266;7.920;2022-09-30T04:03:44;13.70;78.20
29663;DHT22;16578;53.266;7.920;2022-09-30T04:06:12;13.70;77.40
29663;DHT22;16578;53.266;7.920;2022-09-30T04:08:38;13.70;77.20
29663;DHT22;16578;53.266;7.920;2022-09-30T04:11:03;13.70;77.20
29663;DHT22;16578;53.266;7.920;2022-09-30T04:13:30;13.70;77.20
29663;DHT22;16578;53.266;7.920;2022-09-30T04:15:55;13.60;77.10
29663;DHT22;16578;53.266;7.920;2022-09-30T04:18:21;13.60;76.90
29663;DHT22;16578;53.266;7.920;2022-09-30T04:20:47;13.60;76.90
29663;DHT22;16578;53.266;7.920;2022-09-30T04:23:12;13.60;76.90
29663;DHT22;16578;53.266;7.920;2022-09-30T04:25:38;13.50;76.90
29663;DHT22;16578;53.266;7.920;2022-09-30T04:28:03;13.50;76.80
29663;DHT22;16578;53.266;7.920;2022-09-30T04:30:29;13.50;76.80
29663;DHT22;16578;53.266;7.920;2022-09-30T04:32:54;13.50;76.80
29663;DHT22;16578;53.266;7.920;2022-09-30T04:35:20;13.50;76.80
29663;DHT22;16578;53.266;7.920;2022-09-30T04:37:46;13.50;76.90
29663;DHT22;16578;53.266;7.920;2022-09-30T04:40:13;13.50;76.90
29663;DHT22;16578;53.266;7.920;2022-09-30T04:42:40;13.40;76.90
29663;DHT22;16578;53.266;7.920;2022-09-30T04:45:09;13.40;76.90
29663;DHT22;16578;53.266;7.920;2022-09-30T04:47:34;13.40;77.70
29663;DHT22;16578;53.266;7.920;2022-09-30T04:50:00;13.40;76.80
29663;DHT22;16578;53.266;7.920;2022-09-30T04:52:25;13.40;76.80
29663;DHT22;16578;53.266;7.920;2022-09-30T04:54:51;13.30;76.80
29663;DHT22;16578;53.266;7.920;2022-09-30T04:57:18;13.30;76.70
29663;DHT22;16578;53.266;7.920;2022-09-30T04:59:44;13.40;76.80
29663;DHT22;16578;53.266;7.920;2022-09-30T05:02:10;13.30;76.70
29663;DHT22;16578;53.266;7.920;2022-09-30T05:04:37;13.30;76.70
29663;DHT22;16578;53.266;7.920;2022-09-30T05:07:03;13.30;76.80
29663;DHT22;16578;53.266;7.920;2022-09-30T05:09:35;13.30;76.80
29663;DHT22;16578;53.266;7.920;2022-09-30T05:12:01;13.30;76.80
29663;DHT22;16578;53.266;7.920;2022-09-30T05:14:28;13.30;76.80
29663;DHT22;16578;53.266;7.920;2022-09-30T05:16:53;13.20;76.70
29663;DHT22;16578;53.266;7.920;2022-09-30T05:19:19;13.20;76.80
29663;DHT22;16578;53.266;7.920;2022-09-30T05:21:44;13.20;76.80
29663;DHT22;16578;53.266;7.920;2022-09-30T05:24:10;13.20;76.70
29663;DHT22;16578;53.266;7.920;2022-09-30T05:26:36;13.20;76.80
29663;DHT22;16578;53.266;7.920;2022-09-30T05:29:01;13.10;76.80
29663;DHT22;16578;53.266;7.920;2022-09-30T05:31:27;13.10;76.60
29663;DHT22;16578;53.266;7.920;2022-09-30T05:33:53;13.10;76.60
29663;DHT22;16578;53.266;7.920;2022-09-30T05:36:19;13.10;76.60
29663;DHT22;16578;53.266;7.920;2022-09-30T05:38:48;13.10;76.60
29663;DHT22;16578;53.266;7.920;2022-09-30T05:41:14;13.10;76.60
29663;DHT22;16578;53.266;7.920;2022-09-30T05:43:41;13.10;76.50
29663;DHT22;16578;53.266;7.920;2022-09-30T05:46:09;13.00;76.40
29663;DHT22;16578;53.266;7.920;2022-09-30T05:48:35;13.10;76.40
29663;DHT22;16578;53.266;7.920;2022-09-30T05:51:01;13.00;76.30
29663;DHT22;16578;53.266;7.920;2022-09-30T05:53:28;13.00;76.30
29663;DHT22;16578;53.266;7.920;2022-09-30T05:55:56;13.00;76.20
29663;DHT22;16578;53.266;7.920;2022-09-30T05:58:22;12.90;76.10
29663;DHT22;16578;53.266;7.920;2022-09-30T06:00:48;12.90;76.10
29663;DHT22;16578;53.266;7.920;2022-09-30T06:03:15;12.90;76.10
29663;DHT22;16578;53.266;7.920;2022-09-30T06:05:41;12.90;76.10
29663;DHT22;16578;53.266;7.920;2022-09-30T06:08:09;12.90;76.10
29663;DHT22;16578;53.266;7.920;2022-09-30T06:10:35;12.80;76.10
29663;DHT22;16578;53.266;7.920;2022-09-30T06:13:04;12.80;76.20
29663;DHT22;16578;53.266;7.920;2022-09-30T06:15:30;12.80;76.20
29663;DHT22;16578;53.266;7.920;2022-09-30T06:17:55;12.80;76.30
29663;DHT22;16578;53.266;7.920;2022-09-30T06:20:21;12.80;76.30
29663;DHT22;16578;53.266;7.920;2022-09-30T06:22:47;12.80;76.40
29663;DHT22;16578;53.266;7.920;2022-09-30T06:25:13;12.80;76.50
29663;DHT22;16578;53.266;7.920;2022-09-30T06:27:39;12.70;76.50
29663;DHT22;16578;53.266;7.920;2022-09-30T06:30:08;12.70;76.50
29663;DHT22;16578;53.266;7.920;2022-09-30T06:32:34;12.70;76.50
29663;DHT22;16578;53.266;7.920;2022-09-30T06:35:00;12.70;76.60
29663;DHT22;16578;53.266;7.920;2022-09-30T06:37:27;12.70;76.70
29663;DHT22;16578;53.266;7.920;2022-09-30T06:39:53;12.70;76.70
29663;DHT22;16578;53.266;7.920;2022-09-30T06:42:19;12.70;76.80
29663;DHT22;16578;53.266;7.920;2022-09-30T06:44:45;12.80;76.90
29663;DHT22;16578;53.266;7.920;2022-09-30T06:47:12;12.70;76.70
29663;DHT22;16578;53.266;7.920;2022-09-30T06:49:38;12.70;76.70
29663;DHT22;16578;53.266;7.920;2022-09-30T06:52:04;12.70;76.80
29663;DHT22;16578;53.266;7.920;2022-09-30T06:54:29;12.70;76.80
29663;DHT22;16578;53.266;7.920;2022-09-30T06:56:55;12.80;76.90
29663;DHT22;16578;53.266;7.920;2022-09-30T06:59:22;12.80;77.10
29663;DHT22;16578;53.266;7.920;2022-09-30T07:01:48;12.80;77.10
29663;DHT22;16578;53.266;7.920;2022-09-30T07:04:14;12.80;77.10
29663;DHT22;16578;53.266;7.920;2022-09-30T07:06:40;12.80;77.20
29663;DHT22;16578;53.266;7.920;2022-09-30T07:09:07;12.80;77.20
29663;DHT22;16578;53.266;7.920;2022-09-30T07:11:33;12.80;77.20
29663;DHT22;16578;53.266;7.920;2022-09-30T07:13:58;12.80;77.30
29663;DHT22;16578;53.266;7.920;2022-09-30T07:16:24;12.90;77.30
29663;DHT22;16578;53.266;7.920;2022-09-30T07:18:50;12.90;77.20
29663;DHT22;16578;53.266;7.920;2022-09-30T07:21:16;12.90;77.30
29663;DHT22;16578;53.266;7.920;2022-09-30T07:23:43;12.90;77.40
29663;DHT22;16578;53.266;7.920;2022-09-30T07:26:16;12.90;77.40
29663;DHT22;16578;53.266;7.920;2022-09-30T07:28:42;12.90;77.50
29663;DHT22;16578;53.266;7.920;2022-09-30T07:31:11;12.90;77.60
29663;DHT22;16578;53.266;7.920;2022-09-30T07:33:38;12.90;77.70
29663;DHT22;16578;53.266;7.920;2022-09-30T07:36:04;12.90;77.80
29663;DHT22;16578;53.266;7.920;2022-09-30T07:38:33;12.90;77.80
29663;DHT22;16578;53.266;7.920;2022-09-30T07:41:03;13.00;78.00
29663;DHT22;16578;53.266;7.920;2022-09-30T07:43:31;13.00;78.00
29663;DHT22;16578;53.266;7.920;2022-09-30T07:46:08;13.00;78.00
29663;DHT22;16578;53.266;7.920;2022-09-30T07:48:36;13.10;78.20
29663;DHT22;16578;53.266;7.920;2022-09-30T07:51:25;13.10;78.30
29663;DHT22;16578;53.266;7.920;2022-09-30T07:53:57;13.20;78.50
29663;DHT22;16578;53.266;7.920;2022-09-30T07:56:25;13.20;78.70
29663;DHT22;16578;53.266;7.920;2022-09-30T07:58:56;13.20;78.70
29663;DHT22;16578;53.266;7.920;2022-09-30T08:01:22;13.30;78.80
29663;DHT22;16578;53.266;7.920;2022-09-30T08:03:52;13.30;78.80
29663;DHT22;16578;53.266;7.920;2022-09-30T08:06:19;13.40;78.90
29663;DHT22;16578;53.266;7.920;2022-09-30T08:08:45;13.40;78.90
29663;DHT22;16578;53.266;7.920;2022-09-30T08:11:12;13.50;79.00
29663;DHT22;16578;53.266;7.920;2022-09-30T08:13:38;13.50;79.00
29663;DHT22;16578;53.266;7.920;2022-09-30T08:16:04;13.60;79.90
29663;DHT22;16578;53.266;7.920;2022-09-30T08:18:30;13.60;79.20
29663;DHT22;16578;53.266;7.920;2022-09-30T08:21:04;13.70;79.30
29663;DHT22;16578;53.266;7.920;2022-09-30T08:23:34;13.80;79.50
29663;DHT22;16578;53.266;7.920;2022-09-30T08:28:27;13.90;79.50
29663;DHT22;16578;53.266;7.920;2022-09-30T08:31:01;13.90;79.60
29663;DHT22;16578;53.266;7.920;2022-09-30T08:33:27;14.00;79.70
29663;DHT22;16578;53.266;7.920;2022-09-30T08:35:52;14.10;79.70
29663;DHT22;16578;53.266;7.920;2022-09-30T08:38:18;14.20;79.70
29663;DHT22;16578;53.266;7.920;2022-09-30T08:43:56;14.30;80.30
29663;DHT22;16578;53.266;7.920;2022-09-30T08:46:38;14.40;79.50
29663;DHT22;16578;53.266;7.920;2022-09-30T08:49:18;14.40;79.40
29663;DHT22;16578;53.266;7.920;2022-09-30T08:51:47;14.50;79.40
29663;DHT22;16578;53.266;7.920;2022-09-30T08:54:17;14.50;79.30
29663;DHT22;16578;53.266;7.920;2022-09-30T08:56:44;14.60;79.20
29663;DHT22;16578;53.266;7.920;2022-09-30T08:59:36;14.70;79.30
29663;DHT22;16578;53.266;7.920;2022-09-30T09:02:23;14.80;79.40
29663;DHT22;16578;53.266;7.920;2022-09-30T09:04:52;14.80;79.30
29663;DHT22;16578;53.266;7.920;2022-09-30T09:07:22;14.90;79.30
29663;DHT22;16578;53.266;7.920;2022-09-30T09:13:31;15.00;79.10
29663;DHT22;16578;53.266;7.920;2022-09-30T09:18:49;15.10;78.90
29663;DHT22;16578;53.266;7.920;2022-09-30T09:21:33;15.20;79.00
29663;DHT22;16578;53.266;7.920;2022-09-30T09:24:05;15.20;78.80
29663;DHT22;16578;53.266;7.920;2022-09-30T09:26:36;15.30;79.00
29663;DHT22;16578;53.266;7.920;2022-09-30T09:30:27;15.30;79.00
29663;DHT22;16578;53.266;7.920;2022-09-30T09:32:23;15.40;79.00
29663;DHT22;16578;53.266;7.920;2022-09-30T09:34:54;15.40;78.90
29663;DHT22;16578;53.266;7.920;2022-09-30T09:37:29;15.50;78.60
29663;DHT22;16578;53.266;7.920;2022-09-30T09:43:40;15.60;78.10
29663;DHT22;16578;53.266;7.920;2022-09-30T09:46:24;15.70;78.00
29663;DHT22;16578;53.266;7.920;2022-09-30T09:52:00;15.80;77.90
29663;DHT22;16578;53.266;7.920;2022-09-30T09:54:33;15.90;77.90
29663;DHT22;16578;53.266;7.920;2022-09-30T09:57:09;15.90;78.00
29663;DHT22;16578;53.266;7.920;2022-09-30T09:59:36;15.90;77.70
29663;DHT22;16578;53.266;7.920;2022-09-30T10:02:21;16.00;77.80
29663;DHT22;16578;53.266;7.920;2022-09-30T10:04:49;16.10;77.80
29663;DHT22;16578;53.266;7.920;2022-09-30T10:07:24;16.20;77.70
29663;DHT22;16578;53.266;7.920;2022-09-30T10:10:10;16.20;77.20
29663;DHT22;16578;53.266;7.920;2022-09-30T10:12:40;16.30;76.90
29663;DHT22;16578;53.266;7.920;2022-09-30T10:15:23;16.30;76.90
29663;DHT22;16578;53.266;7.920;2022-09-30T10:17:53;16.40;76.50
29663;DHT22;16578;53.266;7.920;2022-09-30T10:20:28;16.40;77.30
29663;DHT22;16578;53.266;7.920;2022-09-30T10:23:24;16.50;76.20
29663;DHT22;16578;53.266;7.920;2022-09-30T10:26:03;16.60;75.70
29663;DHT22;16578;53.266;7.920;2022-09-30T10:28:33;16.60;75.60
29663;DHT22;16578;53.266;7.920;2022-09-30T10:31:02;16.70;75.70
29663;DHT22;16578;53.266;7.920;2022-09-30T10:33:41;16.60;75.70
29663;DHT22;16578;53.266;7.920;2022-09-30T10:36:18;16.70;75.20
29663;DHT22;16578;53.266;7.920;2022-09-30T10:41:28;16.80;74.60
29663;DHT22;16578;53.266;7.920;2022-09-30T10:43:57;16.70;74.50
29663;DHT22;16578;53.266;7.920;2022-09-30T10:46:34;16.80;74.10
29663;DHT22;16578;53.266;7.920;2022-09-30T10:49:23;16.80;73.80
29663;DHT22;16578;53.266;7.920;2022-09-30T10:51:50;16.80;73.60
29663;DHT22;16578;53.266;7.920;2022-09-30T10:57:09;16.90;73.30
29663;DHT22;16578;53.266;7.920;2022-09-30T10:59:39;16.90;73.30
29663;DHT22;16578;53.266;7.920;2022-09-30T11:02:42;16.90;73.00
29663;DHT22;16578;53.266;7.920;2022-09-30T11:05:17;16.90;72.10
29663;DHT22;16578;53.266;7.920;2022-09-30T11:13:09;17.00;72.20
29663;DHT22;16578;53.266;7.920;2022-09-30T11:16:08;17.00;71.90
29663;DHT22;16578;53.266;7.920;2022-09-30T11:18:53;17.00;72.10
29663;DHT22;16578;53.266;7.920;2022-09-30T11:27:11;17.10;71.60
29663;DHT22;16578;53.266;7.920;2022-09-30T11:41:26;17.20;71.60
29663;DHT22;16578;53.266;7.920;2022-09-30T11:58:07;17.40;70.40
29663;DHT22;16578;53.266;7.920;2022-09-30T12:00:36;17.40;69.80
29663;DHT22;16578;53.266;7.920;2022-09-30T12:05:56;17.40;69.80
29663;DHT22;16578;53.266;7.920;2022-09-30T12:08:28;17.50;69.30
29663;DHT22;16578;53.266;7.920;2022-09-30T12:11:13;17.40;69.90
29663;DHT22;16578;53.266;7.920;2022-09-30T12:13:43;17.50;69.30
29663;DHT22;16578;53.266;7.920;2022-09-30T12:16:23;17.40;69.70
29663;DHT22;16578;53.266;7.920;2022-09-30T12:18:56;17.50;69.30
29663;DHT22;16578;53.266;7.920;2022-09-30T12:21:32;17.40;69.60
29663;DHT22;16578;53.266;7.920;2022-09-30T12:25:04;17.50;69.50
29663;DHT22;16578;53.266;7.920;2022-09-30T12:26:58;17.50;69.70
29663;DHT22;16578;53.266;7.920;2022-09-30T12:29:34;17.40;70.40
29663;DHT22;16578;53.266;7.920;2022-09-30T12:32:34;17.40;70.00
29663;DHT22;16578;53.266;7.920;2022-09-30T12:44:17;17.50;68.90
29663;DHT22;16578;53.266;7.920;2022-09-30T12:49:22;17.50;68.50
29663;DHT22;16578;53.266;7.920;2022-09-30T12:51:51;17.60;68.60
29663;DHT22;16578;53.266;7.920;2022-09-30T12:54:19;17.60;68.60
29663;DHT22;16578;53.266;7.920;2022-09-30T12:56:51;17.60;68.60
29663;DHT22;16578;53.266;7.920;2022-09-30T12:59:27;17.60;68.70
29663;DHT22;16578;53.266;7.920;2022-09-30T13:01:54;17.70;68.70
29663;DHT22;16578;53.266;7.920;2022-09-30T13:19:39;17.80;67.50
29663;DHT22;16578;53.266;7.920;2022-09-30T13:27:36;17.80;67.50
29663;DHT22;16578;53.266;7.920;2022-09-30T13:32:45;17.90;67.60
29663;DHT22;16578;53.266;7.920;2022-09-30T13:40:50;17.90;67.40
29663;DHT22;16578;53.266;7.920;2022-09-30T13:43:41;18.00;67.30
29663;DHT22;16578;53.266;7.920;2022-09-30T13:47:18;18.00;67.30
29663;DHT22;16578;53.266;7.920;2022-09-30T13:49:20;18.00;67.20
29663;DHT22;16578;53.266;7.920;2022-09-30T13:51:47;18.00;67.20
29663;DHT22;16578;53.266;7.920;2022-09-30T13:56:50;18.10;66.60
29663;DHT22;16578;53.266;7.920;2022-09-30T14:10:38;18.10;65.90
29663;DHT22;16578;53.266;7.920;2022-09-30T14:19:01;18.10;65.00
29663;DHT22;16578;53.266;7.920;2022-09-30T14:21:28;18.10;65.40
29663;DHT22;16578;53.266;7.920;2022-09-30T14:24:09;18.10;65.50
29663;DHT22;16578;53.266;7.920;2022-09-30T14:29:42;18.10;65.00
29663;DHT22;16578;53.266;7.920;2022-09-30T14:32:13;18.10;65.30
29663;DHT22;16578;53.266;7.920;2022-09-30T14:34:43;18.10;65.40
29663;DHT22;16578;53.266;7.920;2022-09-30T14:37:25;18.10;65.40
29663;DHT22;16578;53.266;7.920;2022-09-30T14:39:51;18.10;65.30
29663;DHT22;16578;53.266;7.920;2022-09-30T14:42:30;18.10;65.40
29663;DHT22;16578;53.266;7.920;2022-09-30T14:44:59;18.10;65.00
29663;DHT22;16578;53.266;7.920;2022-09-30T14:47:39;18.10;65.20
29663;DHT22;16578;53.266;7.920;2022-09-30T14:50:16;18.10;64.80
29663;DHT22;16578;53.266;7.920;2022-09-30T14:52:45;18.20;64.80
29663;DHT22;16578;53.266;7.920;2022-09-30T14:57:43;18.10;66.40
29663;DHT22;16578;53.266;7.920;2022-09-30T15:00:30;18.10;64.80
29663;DHT22;16578;53.266;7.920;2022-09-30T15:02:58;18.20;64.20
29663;DHT22;16578;53.266;7.920;2022-09-30T15:05:24;18.10;65.30
29663;DHT22;16578;53.266;7.920;2022-09-30T15:07:51;18.10;64.70
29663;DHT22;16578;53.266;7.920;2022-09-30T15:10:19;18.10;64.40
29663;DHT22;16578;53.266;7.920;2022-09-30T15:12:47;18.10;64.30
29663;DHT22;16578;53.266;7.920;2022-09-30T15:15:42;18.10;64.50
29663;DHT22;16578;53.266;7.920;2022-09-30T15:18:32;18.10;64.00
29663;DHT22;16578;53.266;7.920;2022-09-30T15:21:09;18.10;63.50
29663;DHT22;16578;53.266;7.920;2022-09-30T15:23:37;18.10;63.90
29663;DHT22;16578;53.266;7.920;2022-09-30T15:26:03;18.10;63.90
29663;DHT22;16578;53.266;7.920;2022-09-30T15:28:31;18.10;64.20
29663;DHT22;16578;53.266;7.920;2022-09-30T15:30:59;18.10;64.20
29663;DHT22;16578;53.266;7.920;2022-09-30T15:33:27;18.10;64.40
29663;DHT22;16578;53.266;7.920;2022-09-30T15:36:05;18.10;64.40
29663;DHT22;16578;53.266;7.920;2022-09-30T15:38:33;18.20;64.10
29663;DHT22;16578;53.266;7.920;2022-09-30T15:41:03;18.10;64.00
29663;DHT22;16578;53.266;7.920;2022-09-30T15:43:47;18.10;63.90
29663;DHT22;16578;53.266;7.920;2022-09-30T15:46:19;18.10;63.70
29663;DHT22;16578;53.266;7.920;2022-09-30T15:48:46;18.10;63.90
29663;DHT22;16578;53.266;7.920;2022-09-30T15:53:52;18.10;63.60
29663;DHT22;16578;53.266;7.920;2022-09-30T15:56:23;18.00;63.70
29663;DHT22;16578;53.266;7.920;2022-09-30T15:58:58;18.00;63.30
29663;DHT22;16578;53.266;7.920;2022-09-30T16:01:44;18.00;63.30
29663;DHT22;16578;53.266;7.920;2022-09-30T16:04:23;17.90;63.30
29663;DHT22;16578;53.266;7.920;2022-09-30T16:06:54;17.90;63.60
29663;DHT22;16578;53.266;7.920;2022-09-30T16:09:34;17.90;63.70
29663;DHT22;16578;53.266;7.920;2022-09-30T16:12:03;17.90;63.70
29663;DHT22;16578;53.266;7.920;2022-09-30T16:14:49;17.80;64.00
29663;DHT22;16578;53.266;7.920;2022-09-30T16:17:36;17.80;63.90
29663;DHT22;16578;53.266;7.920;2022-09-30T16:20:06;17.80;63.90
29663;DHT22;16578;53.266;7.920;2022-09-30T16:25:30;17.70;63.60
29663;DHT22;16578;53.266;7.920;2022-09-30T16:28:08;17.70;63.70
29663;DHT22;16578;53.266;7.920;2022-09-30T16:30:49;17.60;64.00
29663;DHT22;16578;53.266;7.920;2022-09-30T16:33:16;17.50;63.70
29663;DHT22;16578;53.266;7.920;2022-09-30T16:35:43;17.50;63.80
29663;DHT22;16578;53.266;7.920;2022-09-30T16:38:11;17.50;63.80
29663;DHT22;16578;53.266;7.920;2022-09-30T16:40:37;17.40;64.00
29663;DHT22;16578;53.266;7.920;2022-09-30T16:43:04;17.30;64.50
29663;DHT22;16578;53.266;7.920;2022-09-30T16:45:31;17.30;64.50
29663;DHT22;16578;53.266;7.920;2022-09-30T16:47:57;17.30;64.40
29663;DHT22;16578;53.266;7.920;2022-09-30T16:53:05;17.30;64.50
29663;DHT22;16578;53.266;7.920;2022-09-30T16:55:31;17.20;64.60
29663;DHT22;16578;53.266;7.920;2022-09-30T16:57:57;17.20;64.40
29663;DHT22;16578;53.266;7.920;2022-09-30T17:00:24;17.20;64.40
29663;DHT22;16578;53.266;7.920;2022-09-30T17:02:50;17.10;64.50
29663;DHT22;16578;53.266;7.920;2022-09-30T17:05:19;17.10;64.50
29663;DHT22;16578;53.266;7.920;2022-09-30T17:10:21;17.00;64.60
29663;DHT22;16578;53.266;7.920;2022-09-30T17:12:47;17.00;64.60
29663;DHT22;16578;53.266;7.920;2022-09-30T17:15:15;16.90;64.60
29663;DHT22;16578;53.266;7.920;2022-09-30T17:17:41;16.90;64.60
29663;DHT22;16578;53.266;7.920;2022-09-30T17:20:07;16.90;64.70
29663;DHT22;16578;53.266;7.920;2022-09-30T17:22:33;16.80;64.70
29663;DHT22;16578;53.266;7.920;2022-09-30T17:24:59;16.80;64.70
29663;DHT22;16578;53.266;7.920;2022-09-30T17:27:24;16.80;64.70
29663;DHT22;16578;53.266;7.920;2022-09-30T17:29:50;16.80;64.90
29663;DHT22;16578;53.266;7.920;2022-09-30T17:32:16;16.70;65.10
29663;DHT22;16578;53.266;7.920;2022-09-30T17:34:41;16.70;65.30
29663;DHT22;16578;53.266;7.920;2022-09-30T17:37:07;16.70;65.30
29663;DHT22;16578;53.266;7.920;2022-09-30T17:39:33;16.60;65.20
29663;DHT22;16578;53.266;7.920;2022-09-30T17:41:58;16.60;65.00
29663;DHT22;16578;53.266;7.920;2022-09-30T17:44:42;16.60;65.10
29663;DHT22;16578;53.266;7.920;2022-09-30T17:47:08;16.50;65.20
29663;DHT22;16578;53.266;7.920;2022-09-30T17:49:34;16.50;65.10
29663;DHT22;16578;53.266;7.920;2022-09-30T17:52:01;16.50;64.90
29663;DHT22;16578;53.266;7.920;2022-09-30T17:54:27;16.40;64.80
29663;DHT22;16578;53.266;7.920;2022-09-30T17:56:53;16.40;64.80
29663;DHT22;16578;53.266;7.920;2022-09-30T17:59:19;16.40;64.80
29663;DHT22;16578;53.266;7.920;2022-09-30T18:01:49;16.40;64.70
29663;DHT22;16578;53.266;7.920;2022-09-30T18:04:17;16.40;64.70
29663;DHT22;16578;53.266;7.920;2022-09-30T18:06:44;16.30;65.10
29663;DHT22;16578;53.266;7.920;2022-09-30T18:09:10;16.30;65.00
29663;DHT22;16578;53.266;7.920;2022-09-30T18:11:36;16.30;64.70
29663;DHT22;16578;53.266;7.920;2022-09-30T18:14:02;16.30;64.70
29663;DHT22;16578;53.266;7.920;2022-09-30T18:16:29;16.30;64.90
29663;DHT22;16578;53.266;7.920;2022-09-30T18:18:59;16.20;64.90
29663;DHT22;16578;53.266;7.920;2022-09-30T18:21:25;16.20;64.90
29663;DHT22;16578;53.266;7.920;2022-09-30T18:23:52;16.20;64.80
29663;DHT22;16578;53.266;7.920;2022-09-30T18:26:18;16.20;64.80
29663;DHT22;16578;53.266;7.920;2022-09-30T18:28:44;16.20;64.80
29663;DHT22;16578;53.266;7.920;2022-09-30T18:31:10;16.20;64.70
29663;DHT22;16578;53.266;7.920;2022-09-30T18:33:42;16.10;64.70
29663;DHT22;16578;53.266;7.920;2022-09-30T18:36:08;16.10;64.70
29663;DHT22;16578;53.266;7.920;2022-09-30T18:38:34;16.10;64.80
29663;DHT22;16578;53.266;7.920;2022-09-30T18:41:00;16.10;65.10
29663;DHT22;16578;53.266;7.920;2022-09-30T18:43:26;16.10;65.10
29663;DHT22;16578;53.266;7.920;2022-09-30T18:45:53;16.10;65.10
29663;DHT22;16578;53.266;7.920;2022-09-30T18:48:24;16.10;65.00
29663;DHT22;16578;53.266;7.920;2022-09-30T18:50:51;16.10;65.00
29663;DHT22;16578;53.266;7.920;2022-09-30T18:53:19;16.00;65.00